sensor_id;sensor_type;location;lat;lon;timestamp;pressure;altitude;pressure_sealevel;temperature;humidity
47260;BME280;32999;52.412;4.890;2022-11-09T00:01:40;100424.78;;;13.34;100.00
47260;BME280;32999;52.412;4.890;2022-11-09T00:06:44;100433.47;;;13.23;100.00
47260;BME280;32999;52.412;4.890;2022-11-09T00:11:46;100410.41;;;13.09;100.00
47260;BME280;32999;52.412;4.890;2022-11-09T00:16:47;100421.31;;;13.14;100.00
47260;BME280;32999;52.412;4.890;2022-11-09T00:21:51;100415.31;;;13.12;100.00
47260;BME280;32999;52.412;4.890;2022-11-09T00:26:59;100402.41;;;12.95;100.00
47260;BME280;32999;52.412;4.890;2022-11-09T00:32:00;100431.88;;;13.09;100.00
47260;BME280;32999;52.412;4.890;2022-11-09T00:37:03;100410.09;;;12.85;100.00
47260;BME280;32999;52.412;4.890;2022-11-09T00:42:05;100315.19;;;12.35;100.00
47260;BME280;32999;52.412;4.890;2022-11-09T00:47:08;100404.13;;;12.77;100.00
47260;BME280;32999;52.412;4.890;2022-11-09T00:52:11;100327.34;;;12.24;100.00
47260;BME280;32999;52.412;4.890;2022-11-09T00:57:13;100373.19;;;12.74;100.00
47260;BME280;32999;52.412;4.890;2022-11-09T01:02:14;100402.06;;;12.72;100.00
47260;BME280;32999;52.412;4.890;2022-11-09T01:07:17;100295.06;;;12.06;100.00
47260;BME280;32999;52.412;4.890;2022-11-09T01:12:19;100380.69;;;12.52;100.00
47260;BME280;32999;52.412;4.890;2022-11-09T01:17:21;100392.84;;;12.55;100.00
47260;BME280;32999;52.412;4.890;2022-11-09T01:22:24;100417.81;;;12.49;100.00
47260;BME280;32999;52.412;4.890;2022-11-09T01:27:26;100418.22;;;12.46;100.00
47260;BME280;32999;52.412;4.890;2022-11-09T01:32:31;100403.16;;;12.45;100.00
47260;BME280;32999;52.412;4.890;2022-11-09T01:37:34;100340.38;;;12.01;100.00
47260;BME280;32999;52.412;4.890;2022-11-09T01:42:37;100403.00;;;12.33;100.00
47260;BME280;32999;52.412;4.890;2022-11-09T01:47:39;100317.91;;;11.69;100.00
47260;BME280;32999;52.412;4.890;2022-11-09T01:53:04;100397.44;;;12.35;100.00
47260;BME280;32999;52.412;4.890;2022-11-09T01:58:11;100431.66;;;12.33;100.00
47260;BME280;32999;52.412;4.890;2022-11-09T02:03:19;100414.34;;;12.22;100.00
47260;BME280;32999;52.412;4.890;2022-11-09T02:08:25;100416.59;;;12.32;100.00
47260;BME280;32999;52.412;4.890;2022-11-09T02:13:28;100362.59;;;12.15;100.00
47260;BME280;32999;52.412;4.890;2022-11-09T02:18:31;100314.44;;;11.95;100.00
47260;BME280;32999;52.412;4.890;2022-11-09T02:23:35;100415.91;;;12.69;100.00
47260;BME280;32999;52.412;4.890;2022-11-09T02:28:38;100368.94;;;12.47;100.00
47260;BME280;32999;52.412;4.890;2022-11-09T02:33:42;100410.09;;;12.85;100.00
47260;BME280;32999;52.412;4.890;2022-11-09T02:38:54;100355.75;;;12.52;100.00
47260;BME280;32999;52.412;4.890;2022-11-09T02:43:56;100395.06;;;12.71;100.00
47260;BME280;32999;52.412;4.890;2022-11-09T02:49:09;100400.22;;;12.66;100.00
47260;BME280;32999;52.412;4.890;2022-11-09T02:54:24;100311.31;;;12.11;100.00
47260;BME280;32999;52.412;4.890;2022-11-09T02:59:25;100344.47;;;12.23;100.00
47260;BME280;32999;52.412;4.890;2022-11-09T03:04:27;100396.50;;;12.67;100.00
47260;BME280;32999;52.412;4.890;2022-11-09T03:09:30;100268.72;;;11.83;100.00
47260;BME280;32999;52.412;4.890;2022-11-09T03:14:32;100395.38;;;12.37;100.00
47260;BME280;32999;52.412;4.890;2022-11-09T03:19:34;100401.09;;;12.47;100.00
47260;BME280;32999;52.412;4.890;2022-11-09T03:24:37;100337.13;;;11.86;100.00
47260;BME280;32999;52.412;4.890;2022-11-09T03:29:38;100320.00;;;12.07;100.00
47260;BME280;32999;52.412;4.890;2022-11-09T03:34:40;100417.19;;;12.47;100.00
47260;BME280;32999;52.412;4.890;2022-11-09T03:39:43;100359.56;;;11.85;100.00
47260;BME280;32999;52.412;4.890;2022-11-09T03:44:45;100447.72;;;12.33;100.00
47260;BME280;32999;52.412;4.890;2022-11-09T03:49:52;100295.06;;;11.40;100.00
47260;BME280;32999;52.412;4.890;2022-11-09T03:54:57;100347.63;;;11.81;100.00
47260;BME280;32999;52.412;4.890;2022-11-09T03:59:59;100461.72;;;12.48;100.00
47260;BME280;32999;52.412;4.890;2022-11-09T04:05:00;100444.84;;;12.27;100.00
47260;BME280;32999;52.412;4.890;2022-11-09T04:10:06;100399.72;;;12.11;100.00
47260;BME280;32999;52.412;4.890;2022-11-09T04:15:07;100463.16;;;12.57;100.00
47260;BME280;32999;52.412;4.890;2022-11-09T04:20:10;100456.78;;;12.51;100.00
47260;BME280;32999;52.412;4.890;2022-11-09T04:25:13;100481.09;;;12.50;100.00
47260;BME280;32999;52.412;4.890;2022-11-09T04:30:15;100468.31;;;12.52;100.00
47260;BME280;32999;52.412;4.890;2022-11-09T04:35:17;100499.84;;;12.63;100.00
47260;BME280;32999;52.412;4.890;2022-11-09T04:40:20;100456.38;;;12.08;100.00
47260;BME280;32999;52.412;4.890;2022-11-09T04:45:22;100425.00;;;11.76;100.00
47260;BME280;32999;52.412;4.890;2022-11-09T04:50:24;100483.16;;;12.21;100.00
47260;BME280;32999;52.412;4.890;2022-11-09T04:55:27;100505.84;;;12.19;100.00
47260;BME280;32999;52.412;4.890;2022-11-09T05:00:30;100497.41;;;12.29;100.00
47260;BME280;32999;52.412;4.890;2022-11-09T05:05:33;100493.47;;;12.24;100.00
47260;BME280;32999;52.412;4.890;2022-11-09T05:10:36;100494.09;;;12.20;100.00
47260;BME280;32999;52.412;4.890;2022-11-09T05:15:39;100386.03;;;11.40;100.00
47260;BME280;32999;52.412;4.890;2022-11-09T05:20:41;100489.75;;;11.99;100.00
47260;BME280;32999;52.412;4.890;2022-11-09T05:25:44;100433.00;;;11.49;100.00
47260;BME280;32999;52.412;4.890;2022-11-09T05:30:46;100505.41;;;12.02;100.00
47260;BME280;32999;52.412;4.890;2022-11-09T05:35:48;100450.09;;;11.68;100.00
47260;BME280;32999;52.412;4.890;2022-11-09T05:40:53;100496.34;;;11.97;100.00
47260;BME280;32999;52.412;4.890;2022-11-09T05:45:55;100429.84;;;11.39;100.00
47260;BME280;32999;52.412;4.890;2022-11-09T05:51:00;100499.81;;;11.84;100.00
47260;BME280;32999;52.412;4.890;2022-11-09T05:56:07;100457.47;;;11.46;100.00
47260;BME280;32999;52.412;4.890;2022-11-09T06:01:14;100388.63;;;11.14;100.00
47260;BME280;32999;52.412;4.890;2022-11-09T06:06:16;100464.09;;;11.64;100.00
47260;BME280;32999;52.412;4.890;2022-11-09T06:11:19;100504.78;;;11.93;100.00
47260;BME280;32999;52.412;4.890;2022-11-09T06:16:42;100420.81;;;11.40;100.00
47260;BME280;32999;52.412;4.890;2022-11-09T06:21:44;100518.97;;;11.94;100.00
47260;BME280;32999;52.412;4.890;2022-11-09T06:26:47;100515.25;;;11.82;100.00
47260;BME280;32999;52.412;4.890;2022-11-09T06:31:49;100533.59;;;11.91;100.00
47260;BME280;32999;52.412;4.890;2022-11-09T06:36:52;100521.25;;;11.84;100.00
47260;BME280;32999;52.412;4.890;2022-11-09T06:41:55;100525.38;;;11.86;100.00
47260;BME280;32999;52.412;4.890;2022-11-09T06:46:57;100420.91;;;11.06;100.00
47260;BME280;32999;52.412;4.890;2022-11-09T06:52:03;100525.56;;;11.85;100.00
47260;BME280;32999;52.412;4.890;2022-11-09T06:57:06;100458.50;;;11.45;100.00
47260;BME280;32999;52.412;4.890;2022-11-09T07:02:09;100540.81;;;11.91;100.00
47260;BME280;32999;52.412;4.890;2022-11-09T07:07:15;100423.03;;;11.23;100.00
47260;BME280;32999;52.412;4.890;2022-11-09T07:12:18;100556.88;;;11.91;100.00
47260;BME280;32999;52.412;4.890;2022-11-09T07:17:20;100531.72;;;11.79;100.00
47260;BME280;32999;52.412;4.890;2022-11-09T07:22:22;100553.59;;;11.96;100.00
47260;BME280;32999;52.412;4.890;2022-11-09T07:27:25;100574.44;;;12.07;100.00
47260;BME280;32999;52.412;4.890;2022-11-09T07:32:27;100573.84;;;12.11;100.00
47260;BME280;32999;52.412;4.890;2022-11-09T07:37:28;100555.91;;;12.18;100.00
47260;BME280;32999;52.412;4.890;2022-11-09T07:42:32;100576.75;;;12.23;100.00
47260;BME280;32999;52.412;4.890;2022-11-09T07:47:33;100560.03;;;12.21;100.00
47260;BME280;32999;52.412;4.890;2022-11-09T07:52:35;100574.66;;;12.18;100.00
47260;BME280;32999;52.412;4.890;2022-11-09T07:57:39;100575.91;;;12.22;100.00
47260;BME280;32999;52.412;4.890;2022-11-09T08:02:48;100576.75;;;12.43;100.00
47260;BME280;32999;52.412;4.890;2022-11-09T08:07:53;100580.88;;;12.45;100.00
47260;BME280;32999;52.412;4.890;2022-11-09T08:12:58;100576.16;;;12.54;100.00
47260;BME280;32999;52.412;4.890;2022-11-09T08:18:01;100573.91;;;12.77;100.00
47260;BME280;32999;52.412;4.890;2022-11-09T08:23:05;100559.47;;;12.85;100.00
47260;BME280;32999;52.412;4.890;2022-11-09T08:28:09;100578.81;;;13.20;100.00
47260;BME280;32999;52.412;4.890;2022-11-09T08:33:11;100580.25;;;13.29;100.00
47260;BME280;32999;52.412;4.890;2022-11-09T08:38:14;100580.53;;;13.66;100.00
47260;BME280;32999;52.412;4.890;2022-11-09T08:43:17;100586.41;;;13.87;100.00
47260;BME280;32999;52.412;4.890;2022-11-09T08:48:19;100579.25;;;13.75;100.00
47260;BME280;32999;52.412;4.890;2022-11-09T08:53:21;100569.75;;;13.72;100.00
47260;BME280;32999;52.412;4.890;2022-11-09T08:58:24;100496.19;;;13.35;100.00
47260;BME280;32999;52.412;4.890;2022-11-09T09:03:27;100596.81;;;13.71;100.00
47260;BME280;32999;52.412;4.890;2022-11-09T09:08:28;100582.59;;;13.63;100.00
47260;BME280;32999;52.412;4.890;2022-11-09T09:13:32;100474.47;;;12.85;100.00
47260;BME280;32999;52.412;4.890;2022-11-09T09:18:34;100587.25;;;13.88;100.00
47260;BME280;32999;52.412;4.890;2022-11-09T09:23:36;100586.88;;;13.84;100.00
47260;BME280;32999;52.412;4.890;2022-11-09T09:28:40;100582.44;;;14.03;100.00
47260;BME280;32999;52.412;4.890;2022-11-09T09:33:42;100596.69;;;14.04;100.00
47260;BME280;32999;52.412;4.890;2022-11-09T09:38:44;100604.66;;;14.55;100.00
47260;BME280;32999;52.412;4.890;2022-11-09T09:43:53;100602.47;;;14.70;100.00
47260;BME280;32999;52.412;4.890;2022-11-09T09:48:58;100629.53;;;14.50;100.00
47260;BME280;32999;52.412;4.890;2022-11-09T09:54:09;100614.47;;;14.43;100.00
47260;BME280;32999;52.412;4.890;2022-11-09T09:59:19;100612.28;;;14.26;100.00
47260;BME280;32999;52.412;4.890;2022-11-09T10:04:33;100626.75;;;14.25;100.00
47260;BME280;32999;52.412;4.890;2022-11-09T10:09:50;100494.09;;;13.37;100.00
47260;BME280;32999;52.412;4.890;2022-11-09T10:15:09;100632.09;;;14.32;100.00
47260;BME280;32999;52.412;4.890;2022-11-09T10:20:25;100598.94;;;14.07;100.00
47260;BME280;32999;52.412;4.890;2022-11-09T10:25:32;100641.66;;;14.21;100.00
47260;BME280;32999;52.412;4.890;2022-11-09T10:30:39;100588.97;;;13.69;100.00
47260;BME280;32999;52.412;4.890;2022-11-09T10:35:44;100637.22;;;14.02;100.00
47260;BME280;32999;52.412;4.890;2022-11-09T10:40:51;100622.84;;;13.77;100.00
47260;BME280;32999;52.412;4.890;2022-11-09T10:46:01;100642.59;;;14.02;100.00
47260;BME280;32999;52.412;4.890;2022-11-09T10:51:08;100635.13;;;14.04;100.00
47260;BME280;32999;52.412;4.890;2022-11-09T10:56:42;100636.50;;;13.69;100.00
47260;BME280;32999;52.412;4.890;2022-11-09T11:01:55;100629.59;;;13.35;100.00
47260;BME280;32999;52.412;4.890;2022-11-09T11:07:12;100628.22;;;13.77;100.00
47260;BME280;32999;52.412;4.890;2022-11-09T11:12:15;100602.19;;;13.71;100.00
47260;BME280;32999;52.412;4.890;2022-11-09T11:17:24;100617.06;;;13.80;100.00
47260;BME280;32999;52.412;4.890;2022-11-09T11:22:26;100539.38;;;13.20;100.00
47260;BME280;32999;52.412;4.890;2022-11-09T11:27:33;100635.22;;;13.84;100.00
47260;BME280;32999;52.412;4.890;2022-11-09T11:32:38;100496.34;;;12.76;100.00
47260;BME280;32999;52.412;4.890;2022-11-09T11:37:50;100640.84;;;13.70;100.00
47260;BME280;32999;52.412;4.890;2022-11-09T11:43:05;100605.13;;;13.62;100.00
47260;BME280;32999;52.412;4.890;2022-11-09T11:54:02;100584.91;;;14.05;100.00
47260;BME280;32999;52.412;4.890;2022-11-09T11:59:19;100640.63;;;14.22;100.00
47260;BME280;32999;52.412;4.890;2022-11-09T12:04:39;100618.13;;;14.55;100.00
47260;BME280;32999;52.412;4.890;2022-11-09T12:10:12;100628.81;;;14.86;100.00
47260;BME280;32999;52.412;4.890;2022-11-09T12:15:28;100518.53;;;14.05;100.00
47260;BME280;32999;52.412;4.890;2022-11-09T12:20:33;100642.19;;;15.00;100.00
47260;BME280;32999;52.412;4.890;2022-11-09T12:25:45;100522.34;;;14.54;100.00
47260;BME280;32999;52.412;4.890;2022-11-09T12:30:58;100654.53;;;14.82;100.00
47260;BME280;32999;52.412;4.890;2022-11-09T12:36:06;100644.13;;;14.61;100.00
47260;BME280;32999;52.412;4.890;2022-11-09T12:41:21;100561.25;;;14.13;100.00
47260;BME280;32999;52.412;4.890;2022-11-09T12:46:33;100659.97;;;15.01;100.00
47260;BME280;32999;52.412;4.890;2022-11-09T12:57:16;100647.56;;;13.99;100.00
47260;BME280;32999;52.412;4.890;2022-11-09T13:02:31;100690.78;;;13.90;100.00
47260;BME280;32999;52.412;4.890;2022-11-09T13:07:46;100636.19;;;13.06;100.00
47260;BME280;32999;52.412;4.890;2022-11-09T13:13:00;100719.59;;;13.57;100.00
47260;BME280;32999;52.412;4.890;2022-11-09T13:18:04;100725.16;;;13.55;100.00
47260;BME280;32999;52.412;4.890;2022-11-09T13:23:33;100711.94;;;13.47;100.00
47260;BME280;32999;52.412;4.890;2022-11-09T13:28:42;100722.50;;;13.36;100.00
47260;BME280;32999;52.412;4.890;2022-11-09T13:33:44;100744.16;;;13.47;100.00
47260;BME280;32999;52.412;4.890;2022-11-09T13:39:28;100628.75;;;12.68;100.00
47260;BME280;32999;52.412;4.890;2022-11-09T13:44:33;100640.50;;;12.54;100.00
47260;BME280;32999;52.412;4.890;2022-11-09T13:49:47;100691.06;;;12.83;100.00
47260;BME280;32999;52.412;4.890;2022-11-09T13:54:51;100762.97;;;13.34;100.00
47260;BME280;32999;52.412;4.890;2022-11-09T13:59:57;100746.03;;;13.34;100.00
47260;BME280;32999;52.412;4.890;2022-11-09T14:05:00;100798.06;;;13.39;100.00
47260;BME280;32999;52.412;4.890;2022-11-09T14:10:06;100713.13;;;12.72;100.00
47260;BME280;32999;52.412;4.890;2022-11-09T14:15:20;100809.94;;;12.97;100.00
47260;BME280;32999;52.412;4.890;2022-11-09T14:20:35;100824.19;;;12.98;100.00
47260;BME280;32999;52.412;4.890;2022-11-09T14:25:43;100746.28;;;12.51;100.00
47260;BME280;32999;52.412;4.890;2022-11-09T14:30:47;100841.00;;;13.26;100.00
47260;BME280;32999;52.412;4.890;2022-11-09T14:35:50;100686.56;;;12.16;100.00
47260;BME280;32999;52.412;4.890;2022-11-09T14:40:53;100791.91;;;12.71;100.00
47260;BME280;32999;52.412;4.890;2022-11-09T14:45:58;100760.59;;;12.24;100.00
47260;BME280;32999;52.412;4.890;2022-11-09T14:51:04;100744.44;;;12.04;100.00
47260;BME280;32999;52.412;4.890;2022-11-09T14:56:11;100743.31;;;11.85;100.00
47260;BME280;32999;52.412;4.890;2022-11-09T15:01:21;100749.28;;;11.87;100.00
47260;BME280;32999;52.412;4.890;2022-11-09T15:06:26;100880.63;;;12.76;100.00
47260;BME280;32999;52.412;4.890;2022-11-09T15:11:33;100782.38;;;12.14;100.00
47260;BME280;32999;52.412;4.890;2022-11-09T15:16:37;100774.88;;;11.97;100.00
47260;BME280;32999;52.412;4.890;2022-11-09T15:21:44;100801.03;;;11.95;100.00
47260;BME280;32999;52.412;4.890;2022-11-09T15:26:47;100770.81;;;12.07;100.00
47260;BME280;32999;52.412;4.890;2022-11-09T15:31:58;100917.41;;;12.89;100.00
47260;BME280;32999;52.412;4.890;2022-11-09T15:37:00;100922.47;;;12.71;100.00
47260;BME280;32999;52.412;4.890;2022-11-09T15:42:02;100851.75;;;12.31;100.00
47260;BME280;32999;52.412;4.890;2022-11-09T15:47:18;100928.47;;;12.73;100.00
47260;BME280;32999;52.412;4.890;2022-11-09T15:52:20;100941.41;;;12.63;100.00
47260;BME280;32999;52.412;4.890;2022-11-09T15:57:22;100829.97;;;11.78;100.00
47260;BME280;32999;52.412;4.890;2022-11-09T16:02:25;100956.06;;;12.60;100.00
47260;BME280;32999;52.412;4.890;2022-11-09T16:07:26;100922.25;;;12.31;100.00
47260;BME280;32999;52.412;4.890;2022-11-09T16:12:28;100997.00;;;12.47;100.00
47260;BME280;32999;52.412;4.890;2022-11-09T16:17:45;100902.22;;;11.99;100.00
47260;BME280;32999;52.412;4.890;2022-11-09T16:23:22;100807.03;;;11.26;100.00
47260;BME280;32999;52.412;4.890;2022-11-09T16:28:25;100959.63;;;12.11;100.00
47260;BME280;32999;52.412;4.890;2022-11-09T16:33:39;101003.75;;;12.43;100.00
47260;BME280;32999;52.412;4.890;2022-11-09T16:38:54;100879.16;;;11.55;100.00
47260;BME280;32999;52.412;4.890;2022-11-09T16:44:02;101017.75;;;12.67;100.00
47260;BME280;32999;52.412;4.890;2022-11-09T16:49:05;100960.38;;;12.05;100.00
47260;BME280;32999;52.412;4.890;2022-11-09T16:54:07;100913.59;;;11.80;100.00
47260;BME280;32999;52.412;4.890;2022-11-09T16:59:09;101045.63;;;12.44;100.00
47260;BME280;32999;52.412;4.890;2022-11-09T17:04:12;100948.41;;;12.01;100.00
47260;BME280;32999;52.412;4.890;2022-11-09T17:09:14;101080.63;;;12.64;100.00
47260;BME280;32999;52.412;4.890;2022-11-09T17:14:16;101019.56;;;12.32;100.00
47260;BME280;32999;52.412;4.890;2022-11-09T17:19:19;101093.00;;;12.86;100.00
47260;BME280;32999;52.412;4.890;2022-11-09T17:24:28;101103.75;;;12.86;100.00
47260;BME280;32999;52.412;4.890;2022-11-09T17:29:29;101041.25;;;12.37;100.00
47260;BME280;32999;52.412;4.890;2022-11-09T17:34:32;101035.34;;;12.48;100.00
47260;BME280;32999;52.412;4.890;2022-11-09T17:39:34;101029.09;;;12.41;100.00
47260;BME280;32999;52.412;4.890;2022-11-09T17:44:36;101051.63;;;12.46;100.00
47260;BME280;32999;52.412;4.890;2022-11-09T17:49:40;101138.38;;;12.88;100.00
47260;BME280;32999;52.412;4.890;2022-11-09T17:54:42;101086.47;;;12.46;100.00
47260;BME280;32999;52.412;4.890;2022-11-09T17:59:51;101057.84;;;12.04;100.00
47260;BME280;32999;52.412;4.890;2022-11-09T18:04:58;101165.94;;;12.33;100.00
47260;BME280;32999;52.412;4.890;2022-11-09T18:10:05;101158.03;;;12.46;100.00
47260;BME280;32999;52.412;4.890;2022-11-09T18:15:07;101120.56;;;11.95;100.00
47260;BME280;32999;52.412;4.890;2022-11-09T18:20:17;101068.66;;;11.60;100.00
47260;BME280;32999;52.412;4.890;2022-11-09T18:25:20;101198.75;;;12.35;100.00
47260;BME280;32999;52.412;4.890;2022-11-09T18:30:22;101137.06;;;11.77;100.00
47260;BME280;32999;52.412;4.890;2022-11-09T18:35:25;101155.66;;;12.00;100.00
47260;BME280;32999;52.412;4.890;2022-11-09T18:40:27;101104.34;;;11.67;100.00
47260;BME280;32999;52.412;4.890;2022-11-09T18:45:32;101226.41;;;12.56;100.00
47260;BME280;32999;52.412;4.890;2022-11-09T18:50:37;101213.88;;;12.42;100.00
47260;BME280;32999;52.412;4.890;2022-11-09T18:55:39;101225.78;;;12.40;100.00
47260;BME280;32999;52.412;4.890;2022-11-09T19:00:41;101171.75;;;12.00;100.00
47260;BME280;32999;52.412;4.890;2022-11-09T19:06:07;101131.06;;;11.61;100.00
47260;BME280;32999;52.412;4.890;2022-11-09T19:11:15;101220.28;;;12.26;100.00
47260;BME280;32999;52.412;4.890;2022-11-09T19:16:21;101130.84;;;11.47;100.00
47260;BME280;32999;52.412;4.890;2022-11-09T19:21:47;101118.13;;;11.35;100.00
47260;BME280;32999;52.412;4.890;2022-11-09T19:27:02;101232.34;;;12.01;100.00
47260;BME280;32999;52.412;4.890;2022-11-09T19:32:08;101291.16;;;12.39;100.00
47260;BME280;32999;52.412;4.890;2022-11-09T19:37:13;101189.66;;;11.55;100.00
47260;BME280;32999;52.412;4.890;2022-11-09T19:42:15;101216.34;;;11.93;100.00
47260;BME280;32999;52.412;4.890;2022-11-09T19:47:16;101164.19;;;11.59;100.00
47260;BME280;32999;52.412;4.890;2022-11-09T19:52:19;101326.28;;;12.44;100.00
47260;BME280;32999;52.412;4.890;2022-11-09T19:57:43;101315.19;;;12.47;100.00
47260;BME280;32999;52.412;4.890;2022-11-09T20:02:44;101268.81;;;12.17;100.00
47260;BME280;32999;52.412;4.890;2022-11-09T20:07:47;101240.84;;;11.90;100.00
47260;BME280;32999;52.412;4.890;2022-11-09T20:12:49;101275.09;;;11.80;100.00
47260;BME280;32999;52.412;4.890;2022-11-09T20:17:55;101283.16;;;12.09;100.00
47260;BME280;32999;52.412;4.890;2022-11-09T20:23:00;101274.91;;;11.96;100.00
47260;BME280;32999;52.412;4.890;2022-11-09T20:28:03;101252.06;;;11.71;100.00
47260;BME280;32999;52.412;4.890;2022-11-09T20:33:05;101364.06;;;12.19;100.00
47260;BME280;32999;52.412;4.890;2022-11-09T20:38:11;101323.41;;;12.01;100.00
47260;BME280;32999;52.412;4.890;2022-11-09T20:43:13;101397.53;;;12.38;100.00
47260;BME280;32999;52.412;4.890;2022-11-09T20:48:16;101263.03;;;11.46;100.00
47260;BME280;32999;52.412;4.890;2022-11-09T20:53:23;101396.25;;;12.49;100.00
47260;BME280;32999;52.412;4.890;2022-11-09T20:58:25;101305.59;;;11.93;100.00
47260;BME280;32999;52.412;4.890;2022-11-09T21:03:28;101269.59;;;11.58;100.00
47260;BME280;32999;52.412;4.890;2022-11-09T21:08:31;101252.84;;;11.42;100.00
47260;BME280;32999;52.412;4.890;2022-11-09T21:13:33;101262.00;;;11.47;100.00
47260;BME280;32999;52.412;4.890;2022-11-09T21:18:35;101270.03;;;11.47;100.00
47260;BME280;32999;52.412;4.890;2022-11-09T21:23:41;101364.53;;;12.08;100.00
47260;BME280;32999;52.412;4.890;2022-11-09T21:29:00;101379.22;;;11.98;100.00
47260;BME280;32999;52.412;4.890;2022-11-09T21:34:19;101438.38;;;12.25;100.00
47260;BME280;32999;52.412;4.890;2022-11-09T21:39:22;101463.31;;;12.11;100.00
47260;BME280;32999;52.412;4.890;2022-11-09T21:44:27;101464.91;;;12.20;100.00
47260;BME280;32999;52.412;4.890;2022-11-09T21:49:29;101464.72;;;12.22;100.00
47260;BME280;32999;52.412;4.890;2022-11-09T21:54:32;101449.75;;;11.90;100.00
47260;BME280;32999;52.412;4.890;2022-11-09T21:59:34;101494.53;;;12.04;100.00
47260;BME280;32999;52.412;4.890;2022-11-09T22:04:36;101410.31;;;11.38;100.00
47260;BME280;32999;52.412;4.890;2022-11-09T22:09:39;101526.72;;;11.96;100.00
47260;BME280;32999;52.412;4.890;2022-11-09T22:14:41;101504.34;;;12.12;100.00
47260;BME280;32999;52.412;4.890;2022-11-09T22:20:00;101521.78;;;12.31;100.00
47260;BME280;32999;52.412;4.890;2022-11-09T22:25:21;101507.13;;;12.18;100.00
47260;BME280;32999;52.412;4.890;2022-11-09T22:30:24;101485.13;;;12.08;100.00
47260;BME280;32999;52.412;4.890;2022-11-09T22:35:33;101410.31;;;11.38;100.00
47260;BME280;32999;52.412;4.890;2022-11-09T22:40:37;101520.00;;;12.00;100.00
47260;BME280;32999;52.412;4.890;2022-11-09T22:45:39;101466.16;;;11.64;100.00
47260;BME280;32999;52.412;4.890;2022-11-09T22:50:41;101442.88;;;11.42;100.00
47260;BME280;32999;52.412;4.890;2022-11-09T22:55:52;101552.84;;;12.17;100.00
47260;BME280;32999;52.412;4.890;2022-11-09T23:01:01;101562.03;;;12.22;100.00
47260;BME280;32999;52.412;4.890;2022-11-09T23:06:07;101518.47;;;12.06;100.00
47260;BME280;32999;52.412;4.890;2022-11-09T23:11:13;101526.13;;;12.09;100.00
47260;BME280;32999;52.412;4.890;2022-11-09T23:16:15;101575.31;;;12.16;100.00
47260;BME280;32999;52.412;4.890;2022-11-09T23:21:17;101588.88;;;12.14;100.00
47260;BME280;32999;52.412;4.890;2022-11-09T23:26:22;101493.03;;;11.48;100.00
47260;BME280;32999;52.412;4.890;2022-11-09T23:31:25;101587.16;;;11.99;100.00
47260;BME280;32999;52.412;4.890;2022-11-09T23:36:27;101587.81;;;12.01;100.00
47260;BME280;32999;52.412;4.890;2022-11-09T23:41:30;101600.16;;;12.10;100.00
47260;BME280;32999;52.412;4.890;2022-11-09T23:46:32;101579.78;;;12.01;100.00
47260;BME280;32999;52.412;4.890;2022-11-09T23:51:34;101467.75;;;11.19;100.00
47260;BME280;32999;52.412;4.890;2022-11-09T23:56:37;101521.47;;;11.49;100.00
